createdAt,value
2018-05-26T00:02:08.432Z,21.48
2018-05-26T00:04:34.987Z,21.52
2018-05-26T00:07:01.474Z,21.80
2018-05-26T00:09:28.547Z,20.77
2018-05-26T00:11:55.701Z,20.80
2018-05-26T00:14:22.009Z,21.05
2018-05-26T00:16:49.085Z,22.00
2018-05-26T00:19:15.412Z,20.87
2018-05-26T00:21:41.966Z,21.08
2018-05-26T00:24:08.869Z,21.53
2018-05-26T00:26:35.743Z,20.75
2018-05-26T00:29:02.102Z,20.93
2018-05-26T00:31:28.456Z,21.20
2018-05-26T00:33:55.662Z,21.67
2018-05-26T00:36:22.025Z,21.40
2018-05-26T00:38:48.365Z,21.45
2018-05-26T00:41:15.417Z,20.85
2018-05-26T00:43:41.810Z,20.63
2018-05-26T00:46:09.032Z,20.37
2018-05-26T00:48:35.458Z,21.80
2018-05-26T00:51:02.523Z,20.67
2018-05-26T00:53:29.553Z,21.23
2018-05-26T00:55:56.104Z,21.57
2018-05-26T00:58:22.414Z,22.73
2018-05-26T01:00:49.453Z,20.50
2018-05-26T01:03:15.757Z,21.63
2018-05-26T01:05:42.095Z,19.90
2018-05-26T01:08:08.455Z,21.60
2018-05-26T01:10:34.714Z,20.73
2018-05-26T01:13:00.972Z,20.53
2018-05-26T01:15:28.003Z,21.87
2018-05-26T01:17:55.045Z,20.00
2018-05-26T01:20:22.134Z,19.53
2018-05-26T01:22:49.422Z,22.40
2018-05-26T01:25:15.762Z,21.80
2018-05-26T01:27:42.965Z,19.83
2018-05-26T01:30:09.286Z,21.87
2018-05-26T01:32:35.735Z,21.23
2018-05-26T01:35:02.042Z,21.37
2018-05-26T01:37:29.119Z,22.17
2018-05-26T01:39:55.548Z,21.93
2018-05-26T01:42:21.928Z,21.77
2018-05-26T01:44:48.276Z,20.52
2018-05-26T01:47:14.680Z,22.57
2018-05-26T01:49:41.078Z,21.30
2018-05-26T01:52:08.414Z,20.83
2018-05-26T01:54:35.442Z,20.93
2018-05-26T01:57:02.618Z,19.20
2018-05-26T01:59:28.972Z,21.10
2018-05-26T02:01:55.532Z,21.25
2018-05-26T02:04:21.866Z,21.40
2018-05-26T02:06:48.378Z,21.77
2018-05-26T02:09:14.698Z,21.80
2018-05-26T02:11:41.154Z,22.43
2018-05-26T02:14:07.615Z,20.17
2018-05-26T02:16:34.122Z,20.97
2018-05-26T02:19:01.250Z,22.63
2018-05-26T02:21:27.819Z,20.63
2018-05-26T02:23:54.213Z,21.97
2018-05-26T02:26:21.433Z,20.97
2018-05-26T02:28:47.770Z,21.23
2018-05-26T02:31:14.348Z,21.80
2018-05-26T02:33:40.729Z,20.63
2018-05-26T02:36:07.011Z,20.73
2018-05-26T02:38:34.093Z,20.67
2018-05-26T02:41:00.461Z,21.07
2018-05-26T02:43:26.907Z,21.00
2018-05-26T02:45:53.329Z,21.37
2018-05-26T02:48:19.819Z,21.33
2018-05-26T02:50:46.255Z,19.87
2018-05-26T02:53:12.611Z,19.70
2018-05-26T02:55:38.969Z,21.07
2018-05-26T02:58:05.665Z,20.30
2018-05-26T03:00:31.999Z,21.10
2018-05-26T03:02:58.319Z,22.17
2018-05-26T03:05:30.727Z,21.33
2018-05-26T03:08:03.837Z,21.13
2018-05-26T03:10:36.970Z,20.27
2018-05-26T03:13:10.297Z,19.73
2018-05-26T03:15:36.815Z,19.63
2018-05-26T03:18:11.861Z,20.13
2018-05-26T03:20:38.214Z,20.83
2018-05-26T03:23:04.603Z,20.00
2018-05-26T03:25:30.936Z,20.40
2018-05-26T03:27:58.285Z,20.67
2018-05-26T03:30:25.401Z,20.67
2018-05-26T03:32:52.614Z,20.67
2018-05-26T03:35:19.742Z,20.20
2018-05-26T03:37:46.912Z,19.93
2018-05-26T03:40:13.247Z,20.30
2018-05-26T03:42:39.690Z,20.33
2018-05-26T03:45:06.124Z,20.33
2018-05-26T03:47:32.618Z,20.97
2018-05-26T03:49:59.653Z,22.00
2018-05-26T03:52:27.065Z,19.43
2018-05-26T03:54:53.500Z,21.30
2018-05-26T03:57:19.870Z,21.00
2018-05-26T03:59:46.189Z,20.37
2018-05-26T04:02:12.591Z,20.07
2018-05-26T04:04:38.988Z,19.30
2018-05-26T04:07:06.742Z,19.30
2018-05-26T04:12:14.183Z,18.73
2018-05-26T04:14:40.509Z,19.47
2018-05-26T04:17:07.599Z,18.40
2018-05-26T04:19:34.133Z,20.27
2018-05-26T04:22:00.501Z,18.23
2018-05-26T04:24:26.969Z,19.73
2018-05-26T04:26:53.333Z,20.97
2018-05-26T04:29:20.587Z,18.53
2018-05-26T04:31:47.005Z,18.77
2018-05-26T04:34:13.399Z,19.57
2018-05-26T04:36:40.577Z,18.07
2018-05-26T04:39:07.048Z,20.17
2018-05-26T04:41:33.408Z,18.33
2018-05-26T04:44:00.678Z,17.70
2018-05-26T04:46:27.068Z,18.67
2018-05-26T04:48:53.470Z,18.73
2018-05-26T04:51:19.814Z,19.20
2018-05-26T04:53:46.911Z,19.00
2018-05-26T04:56:13.400Z,17.17
2018-05-26T04:58:39.871Z,18.30
2018-05-26T05:01:06.246Z,17.63
2018-05-26T05:03:33.338Z,18.30
2018-05-26T05:05:59.750Z,18.70
2018-05-26T05:08:26.946Z,17.97
2018-05-26T05:10:53.476Z,19.70
2018-05-26T05:13:19.940Z,16.83
2018-05-26T05:15:47.160Z,18.37
2018-05-26T05:18:14.209Z,17.63
2018-05-26T05:20:40.756Z,17.67
2018-05-26T05:23:07.173Z,19.07
2018-05-26T05:25:33.590Z,17.33
2018-05-26T05:27:59.949Z,17.33
2018-05-26T05:30:26.474Z,18.93
2018-05-26T05:32:52.883Z,17.67
2018-05-26T05:35:19.341Z,17.37
2018-05-26T05:37:45.789Z,19.53
2018-05-26T05:40:12.279Z,17.83
2018-05-26T05:42:39.452Z,18.33
2018-05-26T05:45:05.925Z,18.60
2018-05-26T05:47:32.345Z,19.43
2018-05-26T05:49:58.805Z,18.53
2018-05-26T05:52:25.477Z,17.73
2018-05-26T05:54:52.815Z,18.27
2018-05-26T05:57:19.257Z,17.80
2018-05-26T05:59:45.745Z,19.00
2018-05-26T06:02:12.252Z,17.10
2018-05-26T06:04:38.677Z,16.73
2018-05-26T06:07:05.187Z,17.73
2018-05-26T06:09:31.623Z,18.57
2018-05-26T06:11:57.998Z,17.80
2018-05-26T06:14:24.394Z,18.27
2018-05-26T06:16:51.645Z,16.40
2018-05-26T06:19:18.085Z,17.27
2018-05-26T06:21:44.569Z,17.30
2018-05-26T06:24:12.005Z,18.00
2018-05-26T06:26:38.460Z,17.43
2018-05-26T06:29:04.889Z,18.40
2018-05-26T06:31:31.299Z,17.13
2018-05-26T06:33:58.423Z,17.87
2018-05-26T06:36:24.861Z,16.30
2018-05-26T06:38:51.377Z,17.37
2018-05-26T06:41:17.796Z,17.37
2018-05-26T06:43:44.174Z,16.73
2018-05-26T06:46:12.037Z,17.43
2018-05-26T06:48:39.770Z,18.03
2018-05-26T06:51:06.153Z,18.07
2018-05-26T06:53:34.215Z,17.30
2018-05-26T06:56:00.603Z,17.67
2018-05-26T06:58:27.347Z,17.03
2018-05-26T07:00:53.805Z,17.53
2018-05-26T07:03:20.221Z,18.23
2018-05-26T07:05:47.349Z,18.50
2018-05-26T07:08:14.490Z,17.13
2018-05-26T07:10:41.578Z,17.43
2018-05-26T07:13:07.956Z,17.63
2018-05-26T07:15:35.130Z,17.43
2018-05-26T07:18:01.531Z,17.70
2018-05-26T07:20:27.898Z,15.53
2018-05-26T07:22:55.050Z,16.33
2018-05-26T07:25:21.302Z,17.80
2018-05-26T07:27:48.308Z,16.87
2018-05-26T07:30:14.785Z,16.87
2018-05-26T07:32:41.342Z,16.97
2018-05-26T07:35:07.602Z,16.10
2018-05-26T07:37:33.984Z,18.03
2018-05-26T07:40:00.364Z,17.07
2018-05-26T07:42:26.762Z,17.77
2018-05-26T07:44:53.148Z,17.20
2018-05-26T07:47:20.778Z,17.77
2018-05-26T07:49:48.955Z,25.10
2018-05-26T07:52:17.163Z,30.77
2018-05-26T07:54:43.583Z,30.33
2018-05-26T07:57:10.766Z,34.23
2018-05-26T07:59:37.109Z,31.97
2018-05-26T08:02:03.473Z,34.27
2018-05-26T08:04:29.882Z,33.27
2018-05-26T08:06:56.313Z,32.97
2018-05-26T08:09:22.709Z,34.00
2018-05-26T08:11:49.946Z,34.03
2018-05-26T08:14:16.357Z,34.07
2018-05-26T08:16:43.590Z,33.95
2018-05-26T08:19:10.742Z,35.50
2018-05-26T08:21:37.160Z,35.67
2018-05-26T08:24:04.243Z,34.53
2018-05-26T08:26:31.614Z,35.83
2018-05-26T08:28:58.007Z,36.80
2018-05-26T08:31:24.504Z,36.60
2018-05-26T08:33:51.353Z,38.00
2018-05-26T08:38:56.324Z,35.57
2018-05-26T08:41:23.499Z,33.80
2018-05-26T08:43:49.977Z,32.08
2018-05-26T08:46:17.181Z,30.73
2018-05-26T08:48:43.551Z,31.98
2018-05-26T08:51:10.199Z,30.52
2018-05-26T08:53:36.699Z,29.12
2018-05-26T08:56:03.577Z,30.88
2018-05-26T08:58:30.136Z,31.05
2018-05-26T09:00:57.357Z,32.10
2018-05-26T09:03:23.805Z,31.33
2018-05-26T09:05:51.025Z,31.92
2018-05-26T09:08:17.399Z,31.35
2018-05-26T09:10:43.887Z,31.37
2018-05-26T09:13:10.363Z,29.20
2018-05-26T09:15:37.747Z,29.52
2018-05-26T09:18:04.279Z,29.50
2018-05-26T09:20:30.724Z,28.33
2018-05-26T09:22:57.196Z,27.73
2018-05-26T09:25:23.785Z,28.65
2018-05-26T09:27:50.185Z,26.95
2018-05-26T09:30:17.410Z,26.25
2018-05-26T09:32:44.003Z,26.60
2018-05-26T09:35:11.304Z,25.62
2018-05-26T09:37:37.766Z,26.52
2018-05-26T09:40:04.229Z,24.77
2018-05-26T09:42:31.469Z,23.73
2018-05-26T09:44:58.630Z,21.60
2018-05-26T09:47:25.116Z,21.33
2018-05-26T09:49:51.518Z,22.35
2018-05-26T09:52:17.975Z,21.83
2018-05-26T09:54:44.396Z,20.60
2018-05-26T09:57:10.833Z,23.62
2018-05-26T09:59:38.143Z,21.55
2018-05-26T10:02:04.604Z,21.12
2018-05-26T10:04:30.996Z,19.37
2018-05-26T10:06:57.496Z,22.00
2018-05-26T10:09:24.053Z,20.45
2018-05-26T10:11:50.800Z,18.62
2018-05-26T10:14:17.308Z,17.08
2018-05-26T10:16:44.612Z,16.25
2018-05-26T10:19:11.944Z,19.17
2018-05-26T10:21:38.567Z,18.65
2018-05-26T10:24:05.792Z,17.87
2018-05-26T10:26:32.279Z,19.15
2018-05-26T10:28:59.467Z,17.37
2018-05-26T10:31:25.852Z,18.20
2018-05-26T10:33:52.293Z,16.25
2018-05-26T10:36:19.435Z,16.08
2018-05-26T10:38:45.900Z,15.80
2018-05-26T10:41:12.291Z,16.17
2018-05-26T10:43:38.649Z,14.73
2018-05-26T10:46:05.105Z,12.60
2018-05-26T10:48:31.692Z,7.65
2018-05-26T10:50:58.097Z,8.32
2018-05-26T10:53:39.415Z,8.05
2018-05-26T10:56:06.495Z,6.95
2018-05-26T10:58:33.581Z,7.00
2018-05-26T11:00:59.932Z,7.07
2018-05-26T11:03:26.407Z,6.95
2018-05-26T11:05:52.839Z,7.28
2018-05-26T11:08:19.274Z,5.80
2018-05-26T11:10:46.409Z,5.60
2018-05-26T11:13:12.743Z,5.68
2018-05-26T11:15:39.233Z,5.68
2018-05-26T11:18:05.592Z,6.43
2018-05-26T11:20:31.956Z,5.20
2018-05-26T11:22:59.160Z,5.80
2018-05-26T11:25:25.606Z,5.55
2018-05-26T11:27:51.910Z,5.37
2018-05-26T11:30:18.280Z,5.25
2018-05-26T11:32:44.688Z,4.90
2018-05-26T11:35:11.130Z,4.60
2018-05-26T11:37:37.476Z,5.05
2018-05-26T11:40:03.864Z,5.25
2018-05-26T11:42:30.998Z,4.55
2018-05-26T11:44:57.389Z,5.40
2018-05-26T11:47:23.762Z,5.18
2018-05-26T11:49:50.898Z,5.53
2018-05-26T11:52:17.210Z,4.93
2018-05-26T11:54:43.562Z,5.32
2018-05-26T11:57:10.060Z,4.62
2018-05-26T11:59:36.410Z,6.80
2018-05-26T12:02:02.816Z,6.72
2018-05-26T12:04:29.176Z,7.00
2018-05-26T12:06:55.705Z,6.78
2018-05-26T12:09:22.196Z,4.80
2018-05-26T12:11:48.648Z,4.87
2018-05-26T12:14:15.111Z,4.57
2018-05-26T12:16:41.599Z,4.68
2018-05-26T12:19:08.705Z,4.60
2018-05-26T12:21:35.347Z,4.37
2018-05-26T12:24:01.770Z,4.22
2018-05-26T12:26:28.166Z,4.57
2018-05-26T12:28:54.498Z,4.57
2018-05-26T12:31:21.607Z,4.90
2018-05-26T12:33:48.123Z,4.82
2018-05-26T12:36:14.612Z,4.80
2018-05-26T12:38:40.985Z,4.95
2018-05-26T12:41:07.372Z,4.72
2018-05-26T12:43:33.773Z,5.00
2018-05-26T12:46:00.146Z,5.10
2018-05-26T12:48:27.191Z,6.00
2018-05-26T12:50:53.571Z,4.65
2018-05-26T12:53:19.999Z,4.47
2018-05-26T12:55:46.302Z,4.57
2018-05-26T12:58:12.823Z,3.87
2018-05-26T13:00:39.290Z,3.85
2018-05-26T13:03:06.362Z,3.58
2018-05-26T13:05:32.651Z,4.25
2018-05-26T13:07:59.025Z,4.45
2018-05-26T13:10:25.322Z,4.28
2018-05-26T13:12:51.659Z,4.75
2018-05-26T13:15:18.705Z,4.62
2018-05-26T13:17:45.033Z,4.93
2018-05-26T13:20:11.433Z,4.57
2018-05-26T13:22:38.520Z,4.45
2018-05-26T13:25:05.006Z,4.40
2018-05-26T13:27:31.430Z,4.57
2018-05-26T13:29:58.492Z,4.85
2018-05-26T13:32:24.775Z,4.90
2018-05-26T13:34:51.040Z,4.28
2018-05-26T13:37:17.271Z,5.07
2018-05-26T13:39:43.561Z,4.37
2018-05-26T13:42:09.976Z,5.20
2018-05-26T13:44:36.360Z,5.00
2018-05-26T13:47:03.414Z,5.57
2018-05-26T13:49:30.486Z,5.50
2018-05-26T13:51:56.914Z,5.53
2018-05-26T13:54:23.257Z,5.15
2018-05-26T13:56:49.669Z,5.68
2018-05-26T13:59:15.984Z,5.93
2018-05-26T14:01:43.528Z,5.35
2018-05-26T14:04:09.879Z,5.97
2018-05-26T14:06:37.021Z,5.97
2018-05-26T14:09:04.199Z,6.53
2018-05-26T14:11:30.649Z,5.47
2018-05-26T14:13:56.983Z,5.32
2018-05-26T14:16:23.383Z,5.25
2018-05-26T14:18:49.817Z,5.30
2018-05-26T14:21:16.916Z,5.65
2018-05-26T14:23:43.389Z,5.97
2018-05-26T14:26:10.505Z,5.75
2018-05-26T14:28:36.908Z,6.30
2018-05-26T14:31:05.092Z,6.12
2018-05-26T14:33:31.823Z,5.18
2018-05-26T14:35:59.068Z,5.40
2018-05-26T14:38:25.973Z,5.30
2018-05-26T14:40:53.880Z,5.05
2018-05-26T14:43:20.434Z,5.25
2018-05-26T14:45:47.514Z,4.62
2018-05-26T14:48:13.890Z,5.32
2018-05-26T14:50:40.342Z,5.15
2018-05-26T14:53:07.542Z,5.40
2018-05-26T14:55:35.408Z,4.90
2018-05-26T14:58:02.212Z,5.18
2018-05-26T15:00:31.683Z,5.30
2018-05-26T15:03:00.768Z,5.72
2018-05-26T15:05:27.133Z,6.22
2018-05-26T15:07:54.221Z,5.60
2018-05-26T15:10:20.660Z,5.47
2018-05-26T15:12:47.149Z,5.68
2018-05-26T15:15:13.573Z,5.70
2018-05-26T15:17:40.200Z,5.50
2018-05-26T15:20:08.266Z,5.10
2018-05-26T15:22:35.375Z,4.93
2018-05-26T15:25:01.669Z,5.15
2018-05-26T15:27:28.082Z,5.80
2018-05-26T15:29:54.450Z,5.15
2018-05-26T15:32:20.877Z,4.75
2018-05-26T15:34:48.039Z,5.68
2018-05-26T15:37:14.449Z,5.62
2018-05-26T15:39:40.873Z,5.30
2018-05-26T15:42:07.191Z,5.03
2018-05-26T15:44:33.509Z,5.37
2018-05-26T15:46:59.889Z,4.57
2018-05-26T15:49:26.334Z,4.75
2018-05-26T15:51:52.699Z,4.72
2018-05-26T15:54:19.077Z,4.70
2018-05-26T15:56:46.266Z,4.57
2018-05-26T15:59:13.847Z,4.45
2018-05-26T16:01:40.924Z,4.85
2018-05-26T16:04:08.019Z,4.32
2018-05-26T16:06:34.376Z,4.07
2018-05-26T16:09:00.776Z,4.37
2018-05-26T16:11:27.247Z,4.03
2018-05-26T16:13:53.610Z,4.00
2018-05-26T16:16:19.922Z,4.03
2018-05-26T16:18:46.259Z,4.10
2018-05-26T16:21:12.562Z,4.00
2018-05-26T16:23:38.921Z,4.37
2018-05-26T16:26:05.362Z,4.25
2018-05-26T16:28:31.903Z,4.65
2018-05-26T16:30:58.202Z,4.12
2018-05-26T16:33:24.603Z,4.00
2018-05-26T16:35:51.087Z,3.97
2018-05-26T16:38:17.551Z,4.50
2018-05-26T16:40:43.939Z,3.78
2018-05-26T16:43:11.020Z,4.00
2018-05-26T16:45:37.464Z,3.53
2018-05-26T16:48:03.816Z,3.75
2018-05-26T16:50:30.218Z,3.75
2018-05-26T16:52:56.623Z,3.47
2018-05-26T16:55:23.038Z,3.80
2018-05-26T16:57:49.923Z,2.87
2018-05-26T17:00:16.327Z,3.62
2018-05-26T17:02:42.665Z,3.65
2018-05-26T17:05:08.994Z,3.72
2018-05-26T17:07:35.328Z,3.75
2018-05-26T17:10:02.448Z,3.92
2018-05-26T17:12:28.755Z,4.03
2018-05-26T17:14:55.964Z,3.72
2018-05-26T17:17:22.358Z,3.83
2018-05-26T17:19:48.750Z,3.87
2018-05-26T17:22:15.134Z,3.75
2018-05-26T17:24:41.537Z,3.42
2018-05-26T17:27:08.631Z,3.37
2018-05-26T17:29:35.425Z,4.12
2018-05-26T17:32:04.797Z,3.67
2018-05-26T17:34:31.715Z,4.03
2018-05-26T17:36:58.899Z,3.67
2018-05-26T17:39:25.283Z,3.97
2018-05-26T17:41:54.244Z,3.83
2018-05-26T17:44:22.889Z,3.85
2018-05-26T17:46:51.385Z,4.07
2018-05-26T17:49:19.769Z,3.62
2018-05-26T17:51:46.204Z,3.33
2018-05-26T17:54:13.526Z,4.00
2018-05-26T17:56:41.591Z,3.85
2018-05-26T18:04:32.129Z,3.60
2018-05-26T18:06:58.654Z,3.65
2018-05-26T18:09:26.464Z,3.72
2018-05-26T18:11:53.082Z,4.03
2018-05-26T18:14:19.519Z,4.50
2018-05-26T18:16:45.861Z,3.80
2018-05-26T18:19:12.171Z,4.03
2018-05-26T18:21:38.539Z,3.92
2018-05-26T18:24:05.073Z,3.97
2018-05-26T18:26:31.639Z,3.72
2018-05-26T18:29:00.433Z,3.97
2018-05-26T18:31:29.955Z,4.32
2018-05-26T18:33:59.360Z,4.05
2018-05-26T18:36:26.525Z,4.10
2018-05-26T18:38:53.679Z,3.95
2018-05-26T18:41:21.720Z,4.28
2018-05-26T18:43:48.289Z,4.05
2018-05-26T18:46:14.651Z,4.25
2018-05-26T18:48:41.186Z,4.37
2018-05-26T18:51:08.360Z,4.45
2018-05-26T18:53:35.960Z,3.80
2018-05-26T18:56:08.296Z,3.80
2018-05-26T18:58:36.190Z,4.12
2018-05-26T19:01:03.903Z,4.40
2018-05-26T19:03:35.064Z,4.03
2018-05-26T19:06:03.482Z,5.00
2018-05-26T19:08:31.178Z,4.53
2018-05-26T19:11:00.707Z,4.25
2018-05-26T19:13:29.088Z,4.78
2018-05-26T19:15:56.955Z,4.68
2018-05-26T19:18:26.590Z,4.85
2018-05-26T19:20:57.057Z,4.95
2018-05-26T19:23:26.432Z,4.65
2018-05-26T19:25:57.312Z,4.55
2018-05-26T19:28:26.922Z,5.03
2018-05-26T19:30:58.045Z,4.70
2018-05-26T19:33:26.637Z,4.55
2018-05-26T19:35:56.567Z,4.72
2018-05-26T19:38:25.589Z,4.37
2018-05-26T19:40:53.897Z,5.07
2018-05-26T19:43:21.406Z,6.05
2018-05-26T19:45:50.335Z,5.85
2018-05-26T19:48:16.711Z,5.93
2018-05-26T19:50:43.847Z,5.32
2018-05-26T19:53:10.252Z,4.95
2018-05-26T19:55:36.646Z,5.10
2018-05-26T19:58:02.968Z,4.97
2018-05-26T20:00:29.330Z,4.72
2018-05-26T20:02:56.419Z,4.87
2018-05-26T20:05:22.846Z,4.55
2018-05-26T20:07:49.370Z,4.55
2018-05-26T20:10:15.789Z,5.55
2018-05-26T20:12:42.180Z,4.70
2018-05-26T20:15:08.642Z,4.40
2018-05-26T20:17:35.916Z,4.12
2018-05-26T20:20:02.322Z,4.43
2018-05-26T20:22:28.683Z,4.70
2018-05-26T20:24:55.084Z,5.12
2018-05-26T20:27:21.667Z,4.50
2018-05-26T20:29:48.106Z,4.50
2018-05-26T20:32:14.571Z,4.18
2018-05-26T20:34:40.907Z,4.57
2018-05-26T20:37:07.279Z,4.07
2018-05-26T20:39:33.676Z,4.28
2018-05-26T20:42:00.098Z,4.35
2018-05-26T20:44:27.553Z,4.47
2018-05-26T20:46:53.990Z,3.97
2018-05-26T20:49:20.437Z,4.10
2018-05-26T20:51:46.816Z,4.12
2018-05-26T20:54:13.278Z,3.53
2018-05-26T20:56:39.636Z,4.00
2018-05-26T20:59:06.813Z,3.92
2018-05-26T21:01:34.048Z,3.83
2018-05-26T21:04:01.236Z,4.15
2018-05-26T21:06:27.688Z,3.70
2018-05-26T21:08:54.078Z,3.42
2018-05-26T21:11:20.471Z,3.28
2018-05-26T21:13:47.659Z,3.70
2018-05-26T21:16:14.024Z,3.70
2018-05-26T21:18:40.380Z,4.47
2018-05-26T21:21:06.691Z,4.12
2018-05-26T21:23:33.185Z,3.40
2018-05-26T21:28:16.388Z,4.00
2018-05-26T21:30:42.761Z,3.95
2018-05-26T21:33:09.105Z,3.50
2018-05-26T21:35:35.463Z,3.83
2018-05-26T21:38:02.683Z,3.60
2018-05-26T21:40:29.879Z,3.60
2018-05-26T21:42:56.291Z,4.07
2018-05-26T21:45:22.744Z,4.03
2018-05-26T21:47:49.108Z,4.20
2018-05-26T21:50:15.484Z,3.78
2018-05-26T21:52:41.869Z,3.92
2018-05-26T21:55:08.281Z,4.12
2018-05-26T21:57:34.659Z,3.95
2018-05-26T22:00:01.054Z,3.90
2018-05-26T22:02:27.536Z,3.80
2018-05-26T22:04:54.007Z,4.03
2018-05-26T22:07:20.456Z,3.80
2018-05-26T22:09:46.907Z,3.90
2018-05-26T22:12:13.294Z,4.57
2018-05-26T22:14:40.079Z,3.42
2018-05-26T22:17:06.518Z,3.75
2018-05-26T22:19:32.874Z,4.40
2018-05-26T22:21:59.255Z,4.03
2018-05-26T22:24:26.338Z,4.00
2018-05-26T22:26:52.667Z,4.22
2018-05-26T22:29:19.172Z,3.47
2018-05-26T22:31:46.325Z,3.90
2018-05-26T22:34:12.921Z,3.72
2018-05-26T22:36:40.075Z,3.95
2018-05-26T22:39:06.445Z,3.90
2018-05-26T22:41:33.788Z,4.07
2018-05-26T22:44:00.144Z,3.80
2018-05-26T22:46:26.473Z,3.92
2018-05-26T22:48:53.592Z,4.07
2018-05-26T22:51:19.917Z,4.40
2018-05-26T22:53:46.272Z,4.15
2018-05-26T22:56:12.753Z,3.92
2018-05-26T22:58:40.132Z,3.45
2018-05-26T23:01:06.452Z,4.15
2018-05-26T23:03:33.583Z,4.53
2018-05-26T23:06:00.929Z,4.37
2018-05-26T23:08:27.301Z,4.18
2018-05-26T23:10:53.686Z,3.58
2018-05-26T23:13:20.029Z,4.10
2018-05-26T23:15:46.355Z,4.20
2018-05-26T23:18:12.697Z,3.78
2018-05-26T23:20:39.930Z,4.53
2018-05-26T23:23:06.372Z,4.37
2018-05-26T23:25:33.499Z,3.85
2018-05-26T23:27:59.780Z,4.05
2018-05-26T23:30:26.070Z,4.25
2018-05-26T23:32:53.176Z,4.10
2018-05-26T23:35:19.675Z,4.18
2018-05-26T23:37:46.183Z,4.20
2018-05-26T23:40:12.570Z,4.18
2018-05-26T23:42:38.900Z,3.87
2018-05-26T23:45:05.253Z,4.00
2018-05-26T23:47:31.688Z,3.83
2018-05-26T23:49:58.142Z,3.92
2018-05-26T23:52:24.560Z,3.90
2018-05-26T23:54:50.887Z,4.00
2018-05-26T23:57:17.194Z,4.43
2018-05-26T23:59:45.259Z,4.20
